Time;durP1;ratioP1;P1;durP2;ratioP2;P2;SDS_P1;SDS_P2;PMS_P1;PMS_P2;Temp;Humidity;BMP_temperature;BMP_pressure;BME280_temperature;BME280_humidity;BME280_pressure;Samples;Min_cycle;Max_cycle;Signal;HPM_P1;HPM_P2
2022/04/18 00:01:10;;;;;;;3.80;1.67;;;9.30;72.50;;;;;;5075458;28;20391;-67
2022/04/18 00:03:36;;;;;;;4.03;1.97;;;9.30;72.60;;;;;;5075321;28;20051;-68
2022/04/18 00:06:02;;;;;;;4.53;1.80;;;9.30;72.90;;;;;;5094533;28;20263;-68
2022/04/18 00:08:28;;;;;;;3.20;1.73;;;9.20;72.90;;;;;;5093542;28;20028;-68
2022/04/18 00:10:53;;;;;;;3.33;1.80;;;9.20;72.90;;;;;;5077167;28;20016;-67
2022/04/18 00:13:19;;;;;;;3.77;2.00;;;9.10;73.20;;;;;;5095077;28;20726;-69
2022/04/18 00:15:45;;;;;;;5.57;1.90;;;9.00;73.30;;;;;;5093234;28;20096;-68
2022/04/18 00:18:10;;;;;;;4.37;1.60;;;9.00;73.90;;;;;;5075251;28;20024;-68
2022/04/18 00:20:36;;;;;;;3.13;1.60;;;8.90;74.10;;;;;;5093237;28;20735;-68
2022/04/18 00:23:02;;;;;;;2.30;1.70;;;8.90;74.20;;;;;;5097474;28;20028;-68
2022/04/18 00:25:27;;;;;;;3.63;1.95;;;8.90;74.50;;;;;;5097246;28;20039;-68
2022/04/18 00:27:53;;;;;;;3.60;1.80;;;9.00;74.20;;;;;;5097101;28;20032;-68
2022/04/18 00:30:19;;;;;;;2.93;1.70;;;8.90;74.20;;;;;;5096842;28;20111;-68
2022/04/18 00:32:44;;;;;;;5.38;1.85;;;9.00;74.30;;;;;;5097529;28;20399;-68
2022/04/18 00:35:10;;;;;;;2.53;1.53;;;9.00;74.40;;;;;;5096937;28;20020;-68
2022/04/18 00:37:39;;;;;;;4.07;1.70;;;8.90;74.60;;;;;;5097169;28;20048;-68
2022/04/18 00:40:06;;;;;;;3.35;1.95;;;8.90;74.60;;;;;;5078936;28;20035;-69
2022/04/18 00:42:33;;;;;;;3.50;2.10;;;8.80;75.10;;;;;;5097033;28;20028;-67
2022/04/18 00:44:58;;;;;;;3.65;1.83;;;8.70;75.00;;;;;;5096704;28;20024;-67
2022/04/18 00:47:24;;;;;;;3.07;1.80;;;8.60;75.00;;;;;;5096876;28;20081;-67
2022/04/18 00:49:50;;;;;;;3.03;2.00;;;8.50;75.50;;;;;;5097254;28;20281;-68
2022/04/18 00:52:16;;;;;;;2.47;1.60;;;8.40;76.00;;;;;;5096928;28;20020;-68
2022/04/18 00:54:42;;;;;;;4.32;1.90;;;8.30;76.40;;;;;;5096701;28;20266;-68
2022/04/18 00:57:10;;;;;;;4.18;1.80;;;8.30;76.90;;;;;;5078278;28;20133;-68
2022/04/18 00:59:37;;;;;;;3.85;1.73;;;8.20;77.10;;;;;;5078589;28;20415;-67
2022/04/18 01:02:04;;;;;;;3.05;2.00;;;8.10;77.50;;;;;;5096581;28;20023;-68
2022/04/18 01:04:33;;;;;;;5.50;1.80;;;8.00;78.20;;;;;;5096521;28;20099;-68
2022/04/18 01:07:02;;;;;;;4.63;2.17;;;7.90;78.70;;;;;;5096497;28;20028;-68
2022/04/18 01:09:28;;;;;;;3.22;2.10;;;7.90;79.00;;;;;;5097976;28;20103;-68
2022/04/18 01:11:54;;;;;;;4.25;1.75;;;7.90;79.50;;;;;;5079688;28;20055;-68
2022/04/18 01:14:19;;;;;;;2.47;1.83;;;7.70;80.10;;;;;;5078239;28;20028;-68
2022/04/18 01:16:45;;;;;;;3.90;1.93;;;7.70;81.10;;;;;;5097138;28;20115;-68
2022/04/18 01:19:10;;;;;;;6.53;2.40;;;7.60;81.60;;;;;;5096467;28;20059;-68
2022/04/18 01:21:36;;;;;;;4.73;1.77;;;7.60;82.30;;;;;;5096241;28;20066;-68
2022/04/18 01:28:58;;;;;;;5.03;2.10;;;7.50;82.90;;;;;;5077872;28;20039;-68
2022/04/18 01:29:48;;;;;;;4.43;2.08;;;7.50;83.70;;;;;;5013572;28;20072;-68
2022/04/18 01:32:13;;;;;;;3.00;2.03;;;7.40;83.70;;;;;;5060345;28;20374;-67
2022/04/18 01:34:39;;;;;;;3.73;2.10;;;7.40;84.40;;;;;;5095299;28;20032;-67
2022/04/18 01:37:05;;;;;;;3.20;2.00;;;7.40;84.70;;;;;;5077520;28;20020;-67
2022/04/18 01:39:30;;;;;;;3.63;2.13;;;7.40;85.30;;;;;;5096042;28;20165;-68
2022/04/18 01:41:56;;;;;;;5.30;2.10;;;7.30;85.80;;;;;;5095825;28;20043;-69
2022/04/18 01:44:21;;;;;;;4.30;2.10;;;7.20;87.40;;;;;;5095531;28;20024;-68
2022/04/18 01:46:47;;;;;;;3.23;2.10;;;7.10;87.40;;;;;;5095663;28;20050;-68
2022/04/18 01:49:12;;;;;;;3.40;2.23;;;7.10;88.10;;;;;;5077344;28;20522;-68
2022/04/18 01:51:38;;;;;;;3.97;2.60;;;7.00;88.80;;;;;;5095909;28;20372;-68
2022/04/18 01:54:03;;;;;;;2.73;2.00;;;6.90;89.70;;;;;;5079012;28;20122;-68
2022/04/18 01:56:29;;;;;;;2.90;1.93;;;6.90;90.20;;;;;;5097745;28;20055;-68
2022/04/18 01:58:54;;;;;;;5.93;2.40;;;6.80;90.60;;;;;;5096762;28;20023;-67
2022/04/18 02:01:20;;;;;;;4.17;2.23;;;6.70;91.20;;;;;;5097558;28;20024;-68
2022/04/18 02:03:45;;;;;;;4.07;2.20;;;6.70;91.70;;;;;;5096939;28;20024;-67
2022/04/18 02:06:11;;;;;;;4.13;2.00;;;6.60;92.10;;;;;;5096433;28;20514;-67
2022/04/18 02:08:37;;;;;;;3.67;1.80;;;6.60;92.50;;;;;;5096077;28;20107;-67
2022/04/18 02:11:04;;;;;;;6.00;2.10;;;6.50;93.00;;;;;;5078828;28;20372;-67
2022/04/18 02:13:30;;;;;;;3.67;1.95;;;6.50;93.30;;;;;;5095598;28;20020;-67
2022/04/18 02:15:57;;;;;;;2.93;2.10;;;6.50;93.60;;;;;;5097120;28;20042;-67
2022/04/18 02:18:23;;;;;;;4.88;2.08;;;6.50;93.90;;;;;;5098764;28;20020;-67
2022/04/18 02:20:49;;;;;;;3.35;2.22;;;6.50;94.20;;;;;;5098886;28;20043;-68
2022/04/18 02:23:15;;;;;;;3.10;2.20;;;6.50;94.60;;;;;;5098727;28;20528;-68
2022/04/18 02:25:41;;;;;;;5.82;2.22;;;6.50;94.90;;;;;;5097061;28;20444;-67
2022/04/18 02:28:07;;;;;;;4.63;2.08;;;6.40;95.30;;;;;;5097374;28;20031;-66
2022/04/18 02:30:33;;;;;;;3.45;2.58;;;6.40;95.60;;;;;;5097620;28;20499;-68
2022/04/18 02:32:59;;;;;;;4.55;2.45;;;6.40;95.60;;;;;;5096743;28;20060;-67
2022/04/18 02:35:26;;;;;;;4.28;2.30;;;6.40;95.80;;;;;;5078510;28;20021;-68
2022/04/18 02:37:52;;;;;;;;;;;6.40;95.90;;;;;;5096193;28;20043;-67
2022/04/18 02:40:17;;;;;;;3.30;2.28;;;6.40;96.00;;;;;;5077567;28;19941;-67
2022/04/18 02:42:43;;;;;;;3.27;2.43;;;6.40;96.30;;;;;;5095569;28;20107;-66
2022/04/18 02:45:14;;;;;;;5.13;2.13;;;6.40;96.40;;;;;;5096131;28;20032;-67
2022/04/18 02:47:40;;;;;;;5.93;2.22;;;6.40;96.60;;;;;;5079192;28;20100;-67
2022/04/18 02:50:07;;;;;;;5.13;2.63;;;6.50;96.50;;;;;;5096082;28;20024;-67
2022/04/18 02:52:33;;;;;;;5.05;2.70;;;6.50;96.80;;;;;;5095705;28;20028;-67
2022/04/18 02:54:59;;;;;;;5.03;2.47;;;6.50;96.60;;;;;;5095094;28;20430;-67
2022/04/18 02:57:25;;;;;;;3.13;2.00;;;6.50;96.70;;;;;;5095485;28;20026;-67
2022/04/18 02:59:51;;;;;;;9.03;2.70;;;6.50;96.20;;;;;;5095484;28;20056;-67
2022/04/18 03:02:16;;;;;;;5.70;2.40;;;6.60;96.30;;;;;;5095377;28;20520;-67
2022/04/18 03:04:42;;;;;;;5.57;2.60;;;6.60;96.20;;;;;;5095591;28;20066;-67
2022/04/18 03:07:08;;;;;;;7.87;2.47;;;6.70;95.90;;;;;;5094902;28;20404;-67
2022/04/18 03:09:33;;;;;;;3.67;2.30;;;6.70;95.80;;;;;;5094608;28;20155;-67
2022/04/18 03:12:01;;;;;;;5.77;2.17;;;6.70;95.60;;;;;;5076405;28;20473;-66
2022/04/18 03:14:28;;;;;;;5.85;2.33;;;6.80;95.20;;;;;;5075819;28;20024;-67
2022/04/18 03:16:53;;;;;;;5.47;2.20;;;6.80;94.80;;;;;;5094572;28;20027;-67
2022/04/18 03:19:19;;;;;;;6.70;2.50;;;6.90;94.70;;;;;;5093950;28;20028;-67
2022/04/18 03:21:45;;;;;;;5.28;2.42;;;7.00;94.60;;;;;;5094190;28;20047;-67
2022/04/18 03:24:10;;;;;;;5.57;2.63;;;7.00;94.50;;;;;;5075724;28;20087;-67
2022/04/18 03:26:36;;;;;;;3.37;2.30;;;7.00;94.60;;;;;;5093593;28;20032;-68
2022/04/18 03:29:02;;;;;;;5.03;2.40;;;6.90;95.00;;;;;;5093426;28;20090;-66
2022/04/18 03:31:27;;;;;;;3.40;2.30;;;6.80;95.60;;;;;;5113883;22;20040;-68
2022/04/18 03:33:53;;;;;;;3.70;2.50;;;6.70;95.80;;;;;;5093656;28;20287;-67
2022/04/18 03:41:47;;;;;;;5.90;2.72;;;6.70;95.70;;;;;;5093264;28;20062;-67
2022/04/18 03:44:13;;;;;;;6.03;2.50;;;6.70;95.70;;;;;;5093672;28;20028;-68
2022/04/18 03:46:39;;;;;;;4.63;2.20;;;6.70;95.70;;;;;;5092074;28;20028;-68
2022/04/18 03:49:04;;;;;;;3.35;2.53;;;6.70;95.70;;;;;;5093573;28;20173;-68
2022/04/18 03:51:30;;;;;;;4.90;2.47;;;6.70;95.60;;;;;;5093729;28;20111;-68
2022/04/18 03:53:55;;;;;;;4.00;2.10;;;6.70;95.60;;;;;;5092141;28;20030;-68
2022/04/18 03:56:21;;;;;;;3.33;2.37;;;6.70;95.60;;;;;;5091586;28;20028;-68
2022/04/18 03:58:47;;;;;;;5.93;2.70;;;6.70;95.60;;;;;;5093272;28;20091;-68
2022/04/18 04:01:12;;;;;;;2.97;2.47;;;6.70;95.60;;;;;;5093014;28;20441;-68
2022/04/18 04:03:38;;;;;;;4.30;2.50;;;6.70;95.60;;;;;;5093172;28;20027;-68
2022/04/18 04:06:03;;;;;;;6.57;2.37;;;6.70;95.70;;;;;;5093320;28;20099;-68
2022/04/18 04:08:29;;;;;;;4.87;2.63;;;6.70;95.80;;;;;;5094758;28;20074;-68
2022/04/18 04:10:54;;;;;;;4.07;2.60;;;6.60;95.80;;;;;;5096236;28;20028;-68
2022/04/18 04:13:20;;;;;;;4.40;2.57;;;6.60;96.10;;;;;;5094573;28;20095;-68
2022/04/18 04:15:46;;;;;;;3.13;2.10;;;6.50;96.20;;;;;;5093395;28;20020;-68
2022/04/18 04:18:12;;;;;;;3.63;2.20;;;6.50;96.20;;;;;;5092833;28;20099;-68
2022/04/18 04:20:38;;;;;;;5.10;2.53;;;6.50;96.20;;;;;;5092718;28;20071;-68
2022/04/18 04:23:04;;;;;;;6.33;2.53;;;6.50;95.90;;;;;;5092829;28;20254;-68
2022/04/18 04:25:29;;;;;;;4.75;2.17;;;6.50;96.20;;;;;;5091586;28;20020;-67
2022/04/18 04:27:55;;;;;;;4.57;2.57;;;6.50;96.70;;;;;;5092976;28;20191;-68
2022/04/18 04:30:21;;;;;;;5.10;2.50;;;6.40;96.40;;;;;;5091291;28;20032;-68
2022/04/18 04:32:48;;;;;;;3.37;2.20;;;6.40;96.50;;;;;;5092754;28;20093;-68
2022/04/18 04:35:14;;;;;;;4.63;2.38;;;6.40;96.60;;;;;;5093084;28;20020;-68
2022/04/18 04:37:40;;;;;;;4.68;2.15;;;6.40;96.90;;;;;;5091518;28;20109;-68
2022/04/18 04:40:06;;;;;;;4.77;2.70;;;6.40;97.00;;;;;;5092685;28;20055;-68
2022/04/18 04:42:31;;;;;;;4.30;2.63;;;6.30;97.40;;;;;;5092649;28;20024;-68
2022/04/18 04:44:57;;;;;;;5.83;2.90;;;6.20;97.60;;;;;;5093166;28;20029;-68
2022/04/18 04:47:23;;;;;;;3.55;2.45;;;6.20;97.80;;;;;;5092856;28;20024;-68
2022/04/18 04:49:49;;;;;;;5.20;2.80;;;6.20;98.10;;;;;;5092380;28;20024;-68
2022/04/18 04:52:14;;;;;;;3.87;2.40;;;6.20;98.00;;;;;;5091280;28;20028;-68
2022/04/18 04:54:40;;;;;;;4.60;2.63;;;6.20;98.40;;;;;;5092951;28;20415;-68
2022/04/18 04:57:06;;;;;;;3.43;2.33;;;6.10;98.60;;;;;;5092658;28;20472;-68
2022/04/18 04:59:31;;;;;;;3.50;2.30;;;6.10;99.10;;;;;;5092679;28;20021;-68
2022/04/18 05:01:57;;;;;;;6.10;2.63;;;6.10;99.30;;;;;;5091488;28;20020;-68
2022/04/18 05:04:25;;;;;;;8.97;3.27;;;6.00;99.90;;;;;;5092613;28;20046;-68
2022/04/18 05:06:51;;;;;;;4.40;2.90;;;6.00;99.90;;;;;;5092637;28;20107;-67
2022/04/18 05:09:17;;;;;;;5.60;2.58;;;5.90;99.90;;;;;;5093556;28;20531;-67
2022/04/18 05:11:42;;;;;;;3.57;2.67;;;5.90;99.90;;;;;;5096047;28;20055;-67
2022/04/18 05:14:08;;;;;;;4.80;2.83;;;6.00;99.90;;;;;;5096013;28;20099;-67
2022/04/18 05:16:33;;;;;;;7.07;2.87;;;5.90;99.90;;;;;;5095899;28;20020;-67
2022/04/18 05:18:59;;;;;;;5.33;2.93;;;6.00;99.50;;;;;;5094671;28;20028;-67
2022/04/18 05:21:25;;;;;;;3.80;2.13;;;6.00;99.40;;;;;;5094534;28;20028;-67
2022/04/18 05:23:50;;;;;;;4.20;2.80;;;6.00;99.50;;;;;;5096094;28;20490;-67
2022/04/18 05:26:16;;;;;;;4.00;2.77;;;6.10;99.60;;;;;;5095826;28;20028;-67
2022/04/18 05:28:42;;;;;;;4.77;2.20;;;6.10;99.30;;;;;;5094326;28;20315;-67
2022/04/18 05:31:08;;;;;;;4.53;2.65;;;6.10;98.90;;;;;;5094243;28;20047;-67
2022/04/18 05:33:33;;;;;;;4.90;2.80;;;6.20;98.80;;;;;;5095720;28;20028;-67
2022/04/18 05:35:59;;;;;;;5.40;2.70;;;6.20;98.60;;;;;;5095762;28;20290;-67
2022/04/18 05:38:24;;;;;;;4.57;2.70;;;6.30;98.00;;;;;;5095598;28;20098;-67
2022/04/18 05:40:50;;;;;;;6.77;2.70;;;6.30;97.80;;;;;;5097209;28;20024;-67
2022/04/18 05:43:17;;;;;;;4.27;2.70;;;6.40;97.60;;;;;;5097054;28;20043;-68
2022/04/18 05:45:43;;;;;;;3.80;2.35;;;6.40;97.30;;;;;;5095498;28;20024;-67
2022/04/18 05:48:08;;;;;;;5.65;2.50;;;6.50;97.00;;;;;;5095810;28;20146;-67
2022/04/18 05:50:34;;;;;;;3.47;2.30;;;6.50;96.60;;;;;;5095434;28;20024;-67
2022/04/18 05:53:00;;;;;;;5.43;2.63;;;6.60;96.20;;;;;;5094342;28;20096;-67
2022/04/18 05:55:26;;;;;;;4.55;2.60;;;6.70;95.80;;;;;;5095722;28;20029;-68
2022/04/18 05:57:52;;;;;;;4.10;2.43;;;6.70;95.50;;;;;;5095611;28;20020;-69
2022/04/18 06:00:21;;;;;;;4.00;2.42;;;6.80;95.20;;;;;;5094694;28;20451;-69
2022/04/18 06:02:47;;;;;;;9.55;2.97;;;6.90;94.80;;;;;;5095529;28;20024;-69
2022/04/18 06:05:12;;;;;;;4.23;2.73;;;7.00;94.80;;;;;;5093975;28;20077;-68
2022/04/18 06:07:45;;;;;;;6.13;2.90;;;7.10;94.80;;;;;;5095378;28;20450;-69
2022/04/18 06:10:10;;;;;;;6.93;2.22;;;7.20;94.40;;;;;;5095481;28;20050;-69
2022/04/18 06:12:36;;;;;;;5.77;2.83;;;7.20;94.10;;;;;;5095496;28;20020;-69
2022/04/18 06:15:01;;;;;;;4.77;2.67;;;7.20;93.90;;;;;;5094195;28;20434;-69
2022/04/18 06:17:27;;;;;;;5.13;2.10;;;7.40;93.90;;;;;;5093783;28;20480;-69
2022/04/18 06:19:52;;;;;;;4.77;2.43;;;7.40;93.70;;;;;;5093157;28;20020;-69
2022/04/18 06:22:18;;;;;;;5.13;2.33;;;7.60;93.70;;;;;;5094938;28;20024;-69
2022/04/18 06:24:44;;;;;;;3.77;2.30;;;7.70;93.10;;;;;;5096014;28;20173;-63
2022/04/18 06:27:09;;;;;;;3.57;2.33;;;7.80;92.80;;;;;;5095327;28;20035;-64
2022/04/18 06:29:36;;;;;;;5.30;2.23;;;7.90;92.50;;;;;;5094754;28;20047;-66
2022/04/18 06:32:01;;;;;;;7.95;2.58;;;8.10;92.60;;;;;;5095185;28;20024;-66
2022/04/18 06:34:28;;;;;;;4.77;2.10;;;8.20;91.50;;;;;;5094739;28;20118;-66
2022/04/18 06:36:53;;;;;;;7.88;2.50;;;8.30;91.00;;;;;;5095593;28;20099;-65
2022/04/18 06:39:19;;;;;;;2.73;2.13;;;8.50;90.80;;;;;;5098810;28;20063;-64
2022/04/18 06:41:45;;;;;;;4.50;2.30;;;8.50;90.90;;;;;;5095412;28;20269;-65
2022/04/18 06:44:10;;;;;;;3.53;2.27;;;8.60;90.40;;;;;;5093309;28;20023;-66
2022/04/18 06:46:36;;;;;;;3.80;2.50;;;8.70;90.50;;;;;;5092872;28;20028;-69
2022/04/18 06:49:01;;;;;;;5.57;2.30;;;8.80;90.00;;;;;;5094339;28;20055;-66
2022/04/18 06:51:27;;;;;;;4.87;2.23;;;8.90;89.40;;;;;;5094284;28;20059;-65
2022/04/18 06:53:53;;;;;;;6.93;2.70;;;9.00;89.10;;;;;;5094459;28;20036;-66
2022/04/18 06:59:17;;;;;;;4.15;2.20;;;9.00;88.80;;;;;;5052180;28;20040;-68
2022/04/18 07:01:43;;;;;;;6.07;2.58;;;9.10;88.40;;;;;;5051968;28;20083;-65
2022/04/18 07:04:08;;;;;;;6.17;2.43;;;9.20;88.30;;;;;;5035241;28;20527;-67
2022/04/18 07:06:35;;;;;;;5.60;2.70;;;9.30;87.90;;;;;;5051895;28;20100;-67
2022/04/18 07:09:01;;;;;;;4.90;2.65;;;9.40;86.80;;;;;;5051508;28;20033;-67
2022/04/18 07:11:26;;;;;;;3.95;2.30;;;9.50;87.50;;;;;;5051723;28;20573;-67
2022/04/18 07:13:52;;;;;;;4.80;2.73;;;9.60;86.70;;;;;;5052574;28;20025;-67
2022/04/18 07:16:17;;;;;;;11.47;2.43;;;9.70;85.90;;;;;;5051826;28;20563;-67
2022/04/18 07:18:43;;;;;;;6.93;2.07;;;9.80;86.40;;;;;;5035751;28;20058;-67
2022/04/18 07:21:08;;;;;;;4.13;2.50;;;9.80;86.00;;;;;;5053563;28;20098;-68
2022/04/18 07:23:34;;;;;;;3.80;2.23;;;9.80;86.00;;;;;;5054132;28;20036;-66
2022/04/18 07:26:00;;;;;;;5.17;2.73;;;9.90;85.30;;;;;;5053760;28;20056;-66
2022/04/18 07:28:25;;;;;;;4.23;2.50;;;9.90;85.30;;;;;;5054082;28;20043;-67
2022/04/18 07:30:51;;;;;;;3.37;2.20;;;10.00;85.00;;;;;;5035260;28;20033;-67
2022/04/18 07:33:16;;;;;;;3.53;2.30;;;10.00;84.90;;;;;;5036084;28;20468;-67
2022/04/18 07:35:42;;;;;;;2.77;2.10;;;10.10;84.70;;;;;;5083890;28;20036;-66
2022/04/18 07:40:53;;;;;;;6.05;2.80;;;10.30;84.10;;;;;;5093697;28;20093;-65
2022/04/18 07:43:18;;;;;;;4.72;3.25;;;10.30;84.20;;;;;;5093078;28;20028;-68
2022/04/18 07:45:44;;;;;;;4.17;2.53;;;10.50;84.10;;;;;;5093456;28;20190;-68
2022/04/18 07:48:10;;;;;;;5.30;2.63;;;10.50;83.20;;;;;;5093826;28;20107;-69
2022/04/18 07:53:20;;;;;;;5.32;2.70;;;10.80;82.00;;;;;;5093291;28;20070;-68
2022/04/18 07:55:46;;;;;;;4.23;2.70;;;10.90;81.90;;;;;;5092171;28;20429;-64
2022/04/18 07:58:12;;;;;;;3.80;2.42;;;11.00;82.20;;;;;;5093605;28;20726;-64
2022/04/18 08:00:37;;;;;;;4.20;2.43;;;11.00;82.50;;;;;;5093004;28;20031;-63
2022/04/18 08:03:03;;;;;;;6.17;2.43;;;11.10;82.10;;;;;;5091909;28;20032;-63
2022/04/18 08:05:29;;;;;;;5.15;2.60;;;11.20;81.70;;;;;;5093297;28;20028;-66
2022/04/18 08:07:54;;;;;;;3.87;2.60;;;11.30;81.20;;;;;;5091976;28;20508;-66
2022/04/18 08:10:20;;;;;;;3.73;2.10;;;11.40;80.60;;;;;;5092997;28;20391;-67
2022/04/18 08:12:46;;;;;;;3.67;2.58;;;11.50;80.70;;;;;;5093775;28;20016;-67
2022/04/18 08:15:12;;;;;;;4.57;2.58;;;11.60;80.20;;;;;;5093249;28;20024;-68
2022/04/18 08:17:37;;;;;;;4.35;3.00;;;11.80;78.70;;;;;;5093373;28;20103;-66
2022/04/18 08:20:04;;;;;;;5.93;2.70;;;12.00;77.80;;;;;;5095391;28;20033;-67
2022/04/18 08:22:29;;;;;;;4.22;2.70;;;12.10;78.20;;;;;;5092681;28;20020;-66
2022/04/18 08:24:55;;;;;;;6.47;3.00;;;12.20;77.90;;;;;;5097078;28;20075;-67
2022/04/18 08:27:21;;;;;;;5.28;2.55;;;12.30;77.60;;;;;;5096181;28;20035;-66
2022/04/18 08:29:46;;;;;;;4.43;2.80;;;12.40;77.50;;;;;;5093393;28;20036;-68
2022/04/18 08:32:12;;;;;;;4.67;2.87;;;12.60;77.20;;;;;;5094618;28;20130;-66
2022/04/18 08:34:37;;;;;;;5.47;2.75;;;12.90;76.60;;;;;;5093514;28;20024;-67
2022/04/18 08:37:04;;;;;;;4.63;2.90;;;14.50;72.70;;;;;;5093759;28;20430;-67
2022/04/18 08:39:31;;;;;;;4.93;2.65;;;16.40;69.00;;;;;;5092969;28;20081;-67
2022/04/18 08:41:58;;;;;;;3.58;2.65;;;18.20;63.70;;;;;;5091955;28;20492;-68
2022/04/18 08:44:26;;;;;;;4.00;3.00;;;19.60;59.70;;;;;;5096915;28;20119;-68
2022/04/18 08:46:55;;;;;;;12.05;3.13;;;21.20;56.80;;;;;;5096925;28;20110;-68
2022/04/18 08:52:49;;;;;;;4.18;3.00;;;23.20;51.30;;;;;;5096427;28;20039;-68
2022/04/18 08:54:57;;;;;;;4.28;2.70;;;23.20;49.30;;;;;;5091106;28;20076;-68
2022/04/18 08:57:22;;;;;;;3.92;2.67;;;23.70;48.90;;;;;;5095068;28;20036;-66
2022/04/18 08:59:48;;;;;;;;;;;23.20;48.20;;;;;;5096439;28;20020;-64
2022/04/18 09:02:15;;;;;;;4.60;2.55;;;23.20;48.30;;;;;;5096967;28;20348;-68
2022/04/18 09:04:41;;;;;;;3.90;2.70;;;24.70;46.50;;;;;;5097253;28;20043;-68
2022/04/18 09:07:11;;;;;;;3.22;2.78;;;24.60;45.40;;;;;;5095217;28;20031;-68
2022/04/18 09:09:37;;;;;;;5.07;2.97;;;23.40;46.30;;;;;;5097190;28;20024;-67
2022/04/18 09:12:22;;;;;;;3.30;2.63;;;23.60;46.90;;;;;;5096196;28;20077;-67
2022/04/18 09:14:48;;;;;;;5.50;2.75;;;24.80;45.90;;;;;;5096229;28;20016;-67
2022/04/18 09:17:34;;;;;;;3.58;2.90;;;25.20;45.60;;;;;;5095883;28;20099;-64
2022/04/18 09:20:04;;;;;;;3.13;2.20;;;26.30;44.60;;;;;;5095760;28;20115;-67
2022/04/18 09:22:30;;;;;;;3.15;2.72;;;26.00;43.70;;;;;;5094826;28;20024;-68
2022/04/18 09:24:56;;;;;;;4.40;2.65;;;25.20;43.90;;;;;;5095898;28;20541;-66
2022/04/18 09:27:29;;;;;;;3.92;2.83;;;24.90;44.10;;;;;;5095550;28;20474;-66
2022/04/18 09:30:06;;;;;;;3.88;2.78;;;25.30;43.70;;;;;;5094399;28;20032;-64
2022/04/18 09:32:32;;;;;;;3.17;2.60;;;25.80;43.80;;;;;;5096176;28;20039;-67
2022/04/18 09:35:04;;;;;;;4.40;2.40;;;25.70;43.10;;;;;;5095738;28;20476;-68
2022/04/18 09:37:31;;;;;;;6.90;3.00;;;25.90;43.10;;;;;;5095507;28;20479;-67
2022/04/18 09:39:57;;;;;;;3.17;2.42;;;26.10;43.00;;;;;;5095814;28;20031;-71
2022/04/18 09:42:28;;;;;;;3.90;2.35;;;25.40;42.70;;;;;;5094208;28;20024;-67
2022/04/18 09:44:54;;;;;;;3.35;2.70;;;26.50;42.50;;;;;;5095734;28;20070;-66
2022/04/18 09:47:22;;;;;;;4.03;2.60;;;26.60;42.50;;;;;;5095692;28;20032;-66
2022/04/18 09:49:48;;;;;;;3.60;2.40;;;26.60;42.10;;;;;;5094057;28;20039;-68
2022/04/18 09:52:16;;;;;;;4.13;2.90;;;25.90;42.20;;;;;;5095849;28;20025;-69
2022/04/18 09:54:49;;;;;;;3.83;2.55;;;25.20;42.70;;;;;;5094434;28;20035;-67
2022/04/18 09:57:23;;;;;;;3.25;2.33;;;26.00;42.80;;;;;;5095606;28;20032;-67
2022/04/18 09:59:51;;;;;;;2.55;2.25;;;25.90;42.00;;;;;;5095154;28;20020;-67
2022/04/18 10:02:17;;;;;;;3.08;2.50;;;26.60;42.20;;;;;;5094998;28;20016;-68
2022/04/18 10:04:44;;;;;;;4.32;2.70;;;27.90;41.50;;;;;;5095064;28;20039;-69
2022/04/18 10:07:12;;;;;;;3.67;2.63;;;27.60;40.70;;;;;;5095050;28;20032;-67
2022/04/18 10:09:42;;;;;;;3.92;2.75;;;27.40;40.70;;;;;;5094814;28;20115;-68
2022/04/18 10:12:09;;;;;;;4.07;2.70;;;26.70;41.30;;;;;;5095048;28;20073;-68
2022/04/18 10:14:36;;;;;;;4.30;2.53;;;26.60;41.70;;;;;;5095287;28;20027;-67
2022/04/18 10:17:02;;;;;;;4.68;3.05;;;25.80;41.40;;;;;;5095133;28;20481;-70
2022/04/18 10:19:34;;;;;;;3.38;2.63;;;25.20;42.00;;;;;;5095172;28;20465;-69
2022/04/18 10:22:44;;;;;;;2.97;2.20;;;24.50;42.90;;;;;;5094874;28;20099;-67
2022/04/18 10:25:33;;;;;;;3.30;2.35;;;24.10;42.40;;;;;;5094855;28;20027;-68
2022/04/18 10:28:14;;;;;;;4.00;2.60;;;24.00;42.70;;;;;;5094643;28;20081;-68
2022/04/18 10:30:47;;;;;;;3.90;2.45;;;23.40;43.50;;;;;;5092814;28;20040;-67
2022/04/18 10:33:16;;;;;;;3.25;2.17;;;23.50;43.40;;;;;;5094671;28;20052;-68
2022/04/18 10:35:50;;;;;;;3.22;2.20;;;23.90;43.10;;;;;;5094472;28;20453;-68
2022/04/18 10:38:16;;;;;;;5.13;2.35;;;23.90;43.20;;;;;;5094975;28;20070;-65
2022/04/18 10:40:42;;;;;;;3.00;2.60;;;23.80;43.20;;;;;;5094782;28;20453;-65
2022/04/18 10:43:10;;;;;;;7.40;2.88;;;23.70;43.00;;;;;;5094949;28;20027;-67
2022/04/18 10:45:35;;;;;;;3.15;2.33;;;24.60;42.90;;;;;;5094599;28;20481;-68
2022/04/18 10:48:05;;;;;;;3.42;2.53;;;26.00;42.20;;;;;;5094198;28;20029;-68
2022/04/18 10:50:47;;;;;;;3.63;2.33;;;26.50;40.90;;;;;;5092847;28;20027;-67
2022/04/18 10:53:22;;;;;;;4.00;2.55;;;24.60;41.70;;;;;;5092919;28;20024;-67
2022/04/18 10:55:53;;;;;;;3.50;2.35;;;24.80;41.60;;;;;;5093490;28;20020;-67
2022/04/18 10:58:24;;;;;;;4.05;2.40;;;25.20;41.60;;;;;;5094109;28;20020;-67
2022/04/18 11:00:55;;;;;;;3.25;2.33;;;24.50;42.20;;;;;;5093892;28;20031;-67
2022/04/18 11:03:49;;;;;;;3.55;2.58;;;25.20;41.90;;;;;;5094283;28;20422;-67
2022/04/18 11:06:17;;;;;;;6.57;2.80;;;24.70;42.00;;;;;;5093151;28;20028;-67
2022/04/18 11:09:02;;;;;;;3.33;2.40;;;23.20;43.20;;;;;;5093883;28;20020;-67
2022/04/18 11:11:37;;;;;;;5.60;2.70;;;21.80;44.60;;;;;;5094103;28;20396;-67
2022/04/18 11:14:22;;;;;;;4.30;3.03;;;20.50;46.10;;;;;;5094513;28;20023;-66
2022/04/18 11:16:51;;;;;;;3.72;2.70;;;20.20;47.50;;;;;;5093967;28;20044;-67
2022/04/18 11:19:24;;;;;;;3.33;2.50;;;19.60;47.90;;;;;;5093756;28;20020;-67
2022/04/18 11:21:56;;;;;;;4.10;2.63;;;18.70;48.90;;;;;;5092516;28;20113;-68
2022/04/18 11:24:52;;;;;;;3.63;2.50;;;18.30;49.40;;;;;;5093826;28;20031;-67
2022/04/18 11:27:18;;;;;;;5.32;2.67;;;18.00;49.70;;;;;;5094123;28;20020;-69
2022/04/18 11:30:11;;;;;;;4.45;2.72;;;17.70;50.90;;;;;;5093857;28;20020;-69
2022/04/18 11:32:41;;;;;;;4.65;2.95;;;17.60;52.40;;;;;;5093002;28;20044;-67
2022/04/18 11:35:09;;;;;;;4.60;2.20;;;17.60;51.50;;;;;;5094437;28;20012;-70
2022/04/18 11:37:36;;;;;;;4.38;2.50;;;17.50;49.90;;;;;;5093934;28;20357;-70
2022/04/18 11:40:08;;;;;;;2.45;1.95;;;17.50;50.80;;;;;;5093351;28;20419;-69
2022/04/18 11:42:34;;;;;;;4.93;2.63;;;17.20;50.70;;;;;;5093449;28;20035;-69
2022/04/18 11:45:05;;;;;;;4.10;2.55;;;17.30;51.70;;;;;;5093881;28;20069;-69
2022/04/18 11:47:34;;;;;;;5.00;2.75;;;17.30;52.30;;;;;;5093612;28;20051;-69
2022/04/18 11:50:02;;;;;;;4.55;2.40;;;17.40;51.30;;;;;;5093665;28;20036;-69
2022/04/18 11:52:29;;;;;;;4.10;2.83;;;17.40;52.10;;;;;;5097243;28;20020;-69
2022/04/18 11:55:06;;;;;;;4.70;2.53;;;17.30;52.00;;;;;;5099321;28;20047;-69
2022/04/18 11:57:36;;;;;;;5.18;2.60;;;17.30;52.50;;;;;;5098816;28;20027;-69
2022/04/18 12:00:13;;;;;;;4.55;2.83;;;17.10;52.20;;;;;;5098315;28;20031;-69
2022/04/18 12:08:13;;;;;;;5.55;2.90;;;16.90;52.80;;;;;;5094544;28;20047;-68
2022/04/18 12:10:43;;;;;;;6.05;2.75;;;16.90;53.10;;;;;;5094387;28;20028;-68
2022/04/18 12:13:13;;;;;;;6.07;2.80;;;16.90;53.70;;;;;;5094641;28;20024;-68
2022/04/18 12:15:40;;;;;;;7.07;3.13;;;17.10;54.10;;;;;;5092584;28;20392;-68
2022/04/18 12:18:18;;;;;;;3.65;2.33;;;17.10;53.70;;;;;;5095606;28;20020;-68
2022/04/18 12:20:49;;;;;;;4.55;2.67;;;17.10;53.90;;;;;;5100021;28;20020;-67
2022/04/18 12:23:26;;;;;;;3.53;2.38;;;17.20;53.90;;;;;;5098222;28;20084;-67
2022/04/18 12:25:55;;;;;;;;;;;17.20;54.10;;;;;;5097983;28;20076;-66
2022/04/18 12:28:23;;;;;;;4.28;2.85;;;17.20;54.60;;;;;;5095848;28;19941;-68
2022/04/18 12:30:50;;;;;;;4.60;2.70;;;17.20;53.60;;;;;;5095499;28;20032;-67
2022/04/18 12:33:20;;;;;;;4.70;2.97;;;17.10;53.70;;;;;;5095762;28;20028;-67
2022/04/18 12:35:56;;;;;;;4.28;2.75;;;17.00;53.70;;;;;;5096842;28;20020;-68
2022/04/18 12:38:36;;;;;;;5.97;3.50;;;16.90;53.70;;;;;;5096936;28;20496;-68
2022/04/18 12:41:03;;;;;;;5.20;2.78;;;16.90;54.00;;;;;;5097263;28;20029;-67
2022/04/18 12:43:34;;;;;;;4.30;2.30;;;16.90;53.30;;;;;;5096739;28;20031;-64
2022/04/18 12:46:09;;;;;;;5.93;3.00;;;16.90;57.20;;;;;;5097058;28;20047;-64
2022/04/18 12:48:36;;;;;;;5.30;3.22;;;16.90;54.30;;;;;;5097155;28;20024;-61
2022/04/18 12:51:07;;;;;;;5.25;2.88;;;17.00;53.90;;;;;;5096778;28;20020;-59
2022/04/18 12:53:54;;;;;;;6.35;2.80;;;17.10;54.70;;;;;;5097616;28;20035;-60
2022/04/18 12:56:23;;;;;;;5.47;3.10;;;17.10;54.60;;;;;;5097186;28;20051;-62
2022/04/18 12:58:55;;;;;;;4.50;3.30;;;17.20;54.10;;;;;;5097987;28;20016;-61
2022/04/18 13:01:31;;;;;;;4.53;3.20;;;17.20;54.10;;;;;;5096939;28;20035;-59
2022/04/18 13:03:57;;;;;;;4.85;2.75;;;17.20;54.30;;;;;;5096688;28;20393;-62
2022/04/18 13:06:28;;;;;;;5.80;2.88;;;17.20;54.50;;;;;;5096603;28;20027;-59
2022/04/18 13:08:58;;;;;;;5.93;3.13;;;17.40;54.40;;;;;;5096257;28;20028;-62
2022/04/18 13:11:38;;;;;;;5.95;3.50;;;17.30;53.80;;;;;;5096446;28;20114;-60
2022/04/18 13:14:04;;;;;;;4.20;2.83;;;17.30;53.70;;;;;;5096408;28;20077;-59
2022/04/18 13:16:30;;;;;;;5.03;3.35;;;17.30;53.60;;;;;;5094894;28;20024;-60
2022/04/18 13:19:01;;;;;;;5.50;3.17;;;17.20;53.70;;;;;;5096247;28;20111;-60
2022/04/18 13:21:28;;;;;;;5.82;3.03;;;17.20;53.20;;;;;;5096420;28;20483;-60